Portada
METAR-TAF:

METAR-TAF

Aeropuertos :

Rodez, Francia

Aeropuerto de Rodez-Aveyron

latitud: 44-24N, longitud: 002-29E, altitud: 581 m

Observación

El informe se hizo hace 22 minutos, a las 21:30 UTC
Viento 13 kt del sureste
Temperatura 10°C
Humedad 82%
Presión 1013 hPa
Visibilidad 10 km o más
sin nubes por debajo de 1500 m y sin presencia de cumulonimbus.

METAR: LFCR 222130Z AUTO 14013KT CAVOK 10/07 Q1013 TEMPO 14016G26KT

Hora: 22:52 (21:52 UTC)

Pronóstico

El informe se hizo hace 4 horas y 52 minutos, a las 17:00 UTC
Pronóstico válido del 22 a las 18 UTC al 23 a las 18 UTC
Viento 12 kt del sureste
Visibilidad 10 km o más
sin nubes por debajo de 1500 m y sin presencia de cumulonimbus.
Probabilidad 30% :
Temporalmente
del 22 a las 18 UTC al 23 a las 06 UTC
Viento 16 kt del sureste con ráfagas de 26 kt

TAF: LFCR 221700Z 2218/2318 14012KT CAVOK PROB30 TEMPO 2218/2306 14016G26KT

Observaciones y pronósticos meteorológicos de más de 4000 aeropuertos (mensajes METAR y TAF).

Los puntos amarillos y rojos representan las estaciones disponibles.

Ponga el ratón en el punto deseado para ver el nombre de la estación.

Haga clic para ver las observaciones y los pronósticos meteorológicos.

Para cambiar el mapa : haga clic en los botones verdes con una cruz de color negro para hacer un zoom, en el botón verde con un guión para alejar o en las flechas verdes para mapas adyacentes.


METAR-TAF: